Lake Orion, Michigan
Current Conditions -  °F | °C
As of 10:53 PM on Friday 24 Oct 2014 (Local Time) from KPTK Reporting Station
Broken Clouds Broken Clouds  
Wind Chill: 52°   Ceiling: 4100
Heat Index: 52°   Visibility: 10mi
Dew Point: 45°   Wind: 3mph
Humidity: 77%   Direction: 230°SW
Pressure: 29.96"   Gusts: NA
Location:  42.78°N, 83.24°W
Report Text: KPTK 250253Z 23003KT 10SM BKN041 11/07 A2996 RMK AO2 SLP147 T01110072 57005
Loading
Personal Weather Stations






























Interactive Weather Map New forecast layout! Learn more

10-Day Weather Forecast

Advertisements
Track Severe Weather on mobile